sensor_id;sensor_type;location;lat;lon;timestamp;temperature;humidity
75155;HTU21D;63735;44.730;37.818;2023-09-19T00:01:08;20.92;39.72
75155;HTU21D;63735;44.730;37.818;2023-09-19T00:03:35;20.89;39.77
75155;HTU21D;63735;44.730;37.818;2023-09-19T00:06:05;20.90;39.71
75155;HTU21D;63735;44.730;37.818;2023-09-19T00:08:34;20.94;39.61
75155;HTU21D;63735;44.730;37.818;2023-09-19T00:11:00;20.95;39.49
75155;HTU21D;63735;44.730;37.818;2023-09-19T00:13:32;21.03;39.27
75155;HTU21D;63735;44.730;37.818;2023-09-19T00:15:59;21.07;39.22
75155;HTU21D;63735;44.730;37.818;2023-09-19T00:18:26;21.07;39.19
75155;HTU21D;63735;44.730;37.818;2023-09-19T00:21:01;21.05;39.20
75155;HTU21D;63735;44.730;37.818;2023-09-19T00:23:27;21.05;39.17
75155;HTU21D;63735;44.730;37.818;2023-09-19T00:25:53;21.06;39.07
75155;HTU21D;63735;44.730;37.818;2023-09-19T00:28:23;21.09;38.94
75155;HTU21D;63735;44.730;37.818;2023-09-19T00:30:49;21.14;38.86
75155;HTU21D;63735;44.730;37.818;2023-09-19T00:33:15;21.14;38.82
75155;HTU21D;63735;44.730;37.818;2023-09-19T00:35:49;21.14;38.70
75155;HTU21D;63735;44.730;37.818;2023-09-19T00:38:14;21.16;38.63
75155;HTU21D;63735;44.730;37.818;2023-09-19T00:40:47;21.15;38.63
75155;HTU21D;63735;44.730;37.818;2023-09-19T00:43:13;21.15;38.53
75155;HTU21D;63735;44.730;37.818;2023-09-19T00:45:43;21.13;38.58
75155;HTU21D;63735;44.730;37.818;2023-09-19T00:48:09;21.10;38.56
75155;HTU21D;63735;44.730;37.818;2023-09-19T00:50:36;21.08;38.59
75155;HTU21D;63735;44.730;37.818;2023-09-19T00:53:02;21.09;38.53
75155;HTU21D;63735;44.730;37.818;2023-09-19T00:55:39;21.11;38.49
75155;HTU21D;63735;44.730;37.818;2023-09-19T00:58:06;21.13;38.41
75155;HTU21D;63735;44.730;37.818;2023-09-19T01:00:33;21.14;38.41
75155;HTU21D;63735;44.730;37.818;2023-09-19T01:02:59;21.11;38.37
75155;HTU21D;63735;44.730;37.818;2023-09-19T01:05:27;21.05;38.59
75155;HTU21D;63735;44.730;37.818;2023-09-19T01:07:53;20.99;38.73
75155;HTU21D;63735;44.730;37.818;2023-09-19T01:10:21;20.96;38.82
75155;HTU21D;63735;44.730;37.818;2023-09-19T01:31:40;20.75;39.72
75155;HTU21D;63735;44.730;37.818;2023-09-19T01:34:08;20.73;39.77
75155;HTU21D;63735;44.730;37.818;2023-09-19T01:36:36;20.76;39.66
75155;HTU21D;63735;44.730;37.818;2023-09-19T01:39:08;20.81;39.52
75155;HTU21D;63735;44.730;37.818;2023-09-19T01:42:04;20.85;39.47
75155;HTU21D;63735;44.730;37.818;2023-09-19T01:44:53;20.80;39.51
75155;HTU21D;63735;44.730;37.818;2023-09-19T01:47:46;20.78;39.52
75155;HTU21D;63735;44.730;37.818;2023-09-19T01:50:37;20.77;39.52
75155;HTU21D;63735;44.730;37.818;2023-09-19T01:53:23;20.75;39.54
75155;HTU21D;63735;44.730;37.818;2023-09-19T01:55:50;20.71;39.64
75155;HTU21D;63735;44.730;37.818;2023-09-19T02:00:51;20.69;39.74
75155;HTU21D;63735;44.730;37.818;2023-09-19T02:03:18;20.68;39.72
75155;HTU21D;63735;44.730;37.818;2023-09-19T02:05:51;20.60;39.78
75155;HTU21D;63735;44.730;37.818;2023-09-19T02:08:21;20.55;39.81
75155;HTU21D;63735;44.730;37.818;2023-09-19T02:10:49;20.51;39.89
75155;HTU21D;63735;44.730;37.818;2023-09-19T02:13:19;20.45;40.03
75155;HTU21D;63735;44.730;37.818;2023-09-19T02:15:46;20.39;40.17
75155;HTU21D;63735;44.730;37.818;2023-09-19T02:18:13;20.33;40.33
75155;HTU21D;63735;44.730;37.818;2023-09-19T02:20:40;20.26;40.50
75155;HTU21D;63735;44.730;37.818;2023-09-19T02:23:07;20.20;40.65
75155;HTU21D;63735;44.730;37.818;2023-09-19T02:25:34;20.18;40.68
75155;HTU21D;63735;44.730;37.818;2023-09-19T02:28:01;20.17;40.73
75155;HTU21D;63735;44.730;37.818;2023-09-19T02:30:29;20.15;40.84
75155;HTU21D;63735;44.730;37.818;2023-09-19T02:32:55;20.12;40.91
75155;HTU21D;63735;44.730;37.818;2023-09-19T02:35:22;20.15;40.93
75155;HTU21D;63735;44.730;37.818;2023-09-19T02:37:48;20.15;40.92
75155;HTU21D;63735;44.730;37.818;2023-09-19T02:40:15;20.20;40.89
75155;HTU21D;63735;44.730;37.818;2023-09-19T02:42:48;20.22;40.84
75155;HTU21D;63735;44.730;37.818;2023-09-19T02:45:16;20.27;40.78
75155;HTU21D;63735;44.730;37.818;2023-09-19T02:47:44;20.26;40.75
75155;HTU21D;63735;44.730;37.818;2023-09-19T02:50:10;20.31;40.66
75155;HTU21D;63735;44.730;37.818;2023-09-19T02:52:37;20.32;40.65
75155;HTU21D;63735;44.730;37.818;2023-09-19T02:55:03;20.28;40.68
75155;HTU21D;63735;44.730;37.818;2023-09-19T02:57:31;20.27;40.69
75155;HTU21D;63735;44.730;37.818;2023-09-19T02:59:58;20.27;40.67
75155;HTU21D;63735;44.730;37.818;2023-09-19T03:02:26;20.28;40.62
75155;HTU21D;63735;44.730;37.818;2023-09-19T03:04:54;20.22;40.65
75155;HTU21D;63735;44.730;37.818;2023-09-19T03:07:20;20.18;40.72
75155;HTU21D;63735;44.730;37.818;2023-09-19T03:09:46;20.18;40.69
75155;HTU21D;63735;44.730;37.818;2023-09-19T03:12:12;20.22;40.57
75155;HTU21D;63735;44.730;37.818;2023-09-19T03:14:42;20.25;40.49
75155;HTU21D;63735;44.730;37.818;2023-09-19T03:17:08;20.25;40.43
75155;HTU21D;63735;44.730;37.818;2023-09-19T03:19:34;20.28;40.31
75155;HTU21D;63735;44.730;37.818;2023-09-19T03:22:01;20.28;40.26
75155;HTU21D;63735;44.730;37.818;2023-09-19T03:24:30;20.33;40.13
75155;HTU21D;63735;44.730;37.818;2023-09-19T03:26:58;20.34;40.07
75155;HTU21D;63735;44.730;37.818;2023-09-19T03:29:24;20.35;40.04
75155;HTU21D;63735;44.730;37.818;2023-09-19T03:31:51;20.34;40.04
75155;HTU21D;63735;44.730;37.818;2023-09-19T03:34:17;20.30;40.08
75155;HTU21D;63735;44.730;37.818;2023-09-19T03:36:43;20.31;40.10
75155;HTU21D;63735;44.730;37.818;2023-09-19T03:39:09;20.29;40.11
75155;HTU21D;63735;44.730;37.818;2023-09-19T03:41:36;20.29;40.10
75155;HTU21D;63735;44.730;37.818;2023-09-19T03:44:03;20.31;40.10
75155;HTU21D;63735;44.730;37.818;2023-09-19T03:46:29;20.33;40.10
75155;HTU21D;63735;44.730;37.818;2023-09-19T03:48:56;20.33;40.10
75155;HTU21D;63735;44.730;37.818;2023-09-19T03:51:22;20.31;40.17
75155;HTU21D;63735;44.730;37.818;2023-09-19T03:53:48;20.29;40.22
75155;HTU21D;63735;44.730;37.818;2023-09-19T03:56:17;20.33;40.16
75155;HTU21D;63735;44.730;37.818;2023-09-19T03:58:43;20.34;40.14
75155;HTU21D;63735;44.730;37.818;2023-09-19T04:01:09;20.30;40.20
75155;HTU21D;63735;44.730;37.818;2023-09-19T04:03:35;20.29;40.20
75155;HTU21D;63735;44.730;37.818;2023-09-19T04:06:15;20.30;40.17
75155;HTU21D;63735;44.730;37.818;2023-09-19T04:08:42;20.26;40.15
75155;HTU21D;63735;44.730;37.818;2023-09-19T04:11:08;20.26;40.12
75155;HTU21D;63735;44.730;37.818;2023-09-19T04:13:34;20.27;39.82
75155;HTU21D;63735;44.730;37.818;2023-09-19T04:16:00;20.39;39.53
75155;HTU21D;63735;44.730;37.818;2023-09-19T04:18:26;20.54;39.29
75155;HTU21D;63735;44.730;37.818;2023-09-19T04:20:53;20.71;38.87
75155;HTU21D;63735;44.730;37.818;2023-09-19T04:23:19;20.70;38.58
75155;HTU21D;63735;44.730;37.818;2023-09-19T04:25:48;20.66;38.56
75155;HTU21D;63735;44.730;37.818;2023-09-19T04:28:15;20.68;38.24
75155;HTU21D;63735;44.730;37.818;2023-09-19T04:30:41;20.88;37.85
75155;HTU21D;63735;44.730;37.818;2023-09-19T04:33:07;20.95;37.57
75155;HTU21D;63735;44.730;37.818;2023-09-19T04:35:34;20.93;37.47
75155;HTU21D;63735;44.730;37.818;2023-09-19T04:38:00;21.17;37.01
75155;HTU21D;63735;44.730;37.818;2023-09-19T04:40:26;21.80;35.55
75155;HTU21D;63735;44.730;37.818;2023-09-19T04:42:54;22.38;34.25
75155;HTU21D;63735;44.730;37.818;2023-09-19T04:45:23;22.47;34.10
75155;HTU21D;63735;44.730;37.818;2023-09-19T04:47:49;22.55;33.63
75155;HTU21D;63735;44.730;37.818;2023-09-19T04:50:15;22.71;33.39
75155;HTU21D;63735;44.730;37.818;2023-09-19T04:52:45;22.92;32.95
75155;HTU21D;63735;44.730;37.818;2023-09-19T04:55:14;23.02;32.64
75155;HTU21D;63735;44.730;37.818;2023-09-19T04:57:44;23.05;32.80
75155;HTU21D;63735;44.730;37.818;2023-09-19T05:00:15;23.02;32.86
75155;HTU21D;63735;44.730;37.818;2023-09-19T05:02:43;23.14;32.80
75155;HTU21D;63735;44.730;37.818;2023-09-19T05:05:09;23.36;32.58
75155;HTU21D;63735;44.730;37.818;2023-09-19T05:07:37;23.73;32.10
75155;HTU21D;63735;44.730;37.818;2023-09-19T05:10:05;24.17;31.18
75155;HTU21D;63735;44.730;37.818;2023-09-19T05:12:34;24.61;30.51
75155;HTU21D;63735;44.730;37.818;2023-09-19T05:15:02;24.94;29.73
75155;HTU21D;63735;44.730;37.818;2023-09-19T05:17:29;25.68;28.84
75155;HTU21D;63735;44.730;37.818;2023-09-19T05:19:55;26.34;27.83
75155;HTU21D;63735;44.730;37.818;2023-09-19T05:22:21;26.66;27.29
75155;HTU21D;63735;44.730;37.818;2023-09-19T05:24:47;26.84;26.93
75155;HTU21D;63735;44.730;37.818;2023-09-19T05:27:16;26.75;27.04
75155;HTU21D;63735;44.730;37.818;2023-09-19T05:29:43;26.61;27.21
75155;HTU21D;63735;44.730;37.818;2023-09-19T05:32:10;26.13;27.71
75155;HTU21D;63735;44.730;37.818;2023-09-19T05:34:37;25.62;28.36
75155;HTU21D;63735;44.730;37.818;2023-09-19T05:37:04;25.32;28.72
75155;HTU21D;63735;44.730;37.818;2023-09-19T05:39:33;25.23;28.87
75155;HTU21D;63735;44.730;37.818;2023-09-19T05:41:59;25.16;29.03
75155;HTU21D;63735;44.730;37.818;2023-09-19T05:44:29;25.07;29.16
75155;HTU21D;63735;44.730;37.818;2023-09-19T05:46:54;25.12;28.87
75155;HTU21D;63735;44.730;37.818;2023-09-19T05:49:22;25.18;28.80
75155;HTU21D;63735;44.730;37.818;2023-09-19T05:51:50;25.20;28.55
75155;HTU21D;63735;44.730;37.818;2023-09-19T05:54:19;25.20;28.47
75155;HTU21D;63735;44.730;37.818;2023-09-19T05:56:45;25.20;28.59
75155;HTU21D;63735;44.730;37.818;2023-09-19T05:59:13;25.18;28.55
75155;HTU21D;63735;44.730;37.818;2023-09-19T06:01:42;25.07;28.65
75155;HTU21D;63735;44.730;37.818;2023-09-19T06:04:08;25.06;28.75
75155;HTU21D;63735;44.730;37.818;2023-09-19T06:06:34;24.92;29.04
75155;HTU21D;63735;44.730;37.818;2023-09-19T06:09:06;24.83;29.40
75155;HTU21D;63735;44.730;37.818;2023-09-19T06:11:31;24.78;29.64
75155;HTU21D;63735;44.730;37.818;2023-09-19T06:14:01;24.87;29.57
75155;HTU21D;63735;44.730;37.818;2023-09-19T06:16:28;24.98;29.32
75155;HTU21D;63735;44.730;37.818;2023-09-19T06:18:54;25.13;28.60
75155;HTU21D;63735;44.730;37.818;2023-09-19T06:21:22;25.18;28.73
75155;HTU21D;63735;44.730;37.818;2023-09-19T06:23:48;25.38;28.43
75155;HTU21D;63735;44.730;37.818;2023-09-19T06:26:14;25.68;27.94
75155;HTU21D;63735;44.730;37.818;2023-09-19T06:28:40;26.04;27.49
75155;HTU21D;63735;44.730;37.818;2023-09-19T06:31:06;26.27;27.20
75155;HTU21D;63735;44.730;37.818;2023-09-19T06:33:36;26.47;26.94
75155;HTU21D;63735;44.730;37.818;2023-09-19T06:36:06;26.63;26.68
75155;HTU21D;63735;44.730;37.818;2023-09-19T06:38:32;26.72;26.41
75155;HTU21D;63735;44.730;37.818;2023-09-19T06:41:02;26.81;26.14
75155;HTU21D;63735;44.730;37.818;2023-09-19T06:43:31;26.87;26.20
75155;HTU21D;63735;44.730;37.818;2023-09-19T06:46:00;26.97;25.97
75155;HTU21D;63735;44.730;37.818;2023-09-19T06:48:26;27.02;25.77
75155;HTU21D;63735;44.730;37.818;2023-09-19T06:50:56;27.04;25.61
75155;HTU21D;63735;44.730;37.818;2023-09-19T06:53:24;27.10;25.53
75155;HTU21D;63735;44.730;37.818;2023-09-19T06:55:53;27.14;25.43
75155;HTU21D;63735;44.730;37.818;2023-09-19T06:58:19;27.30;25.34
75155;HTU21D;63735;44.730;37.818;2023-09-19T07:00:46;27.47;25.02
75155;HTU21D;63735;44.730;37.818;2023-09-19T07:03:13;27.54;24.84
75155;HTU21D;63735;44.730;37.818;2023-09-19T07:05:41;27.55;24.85
75155;HTU21D;63735;44.730;37.818;2023-09-19T07:08:10;27.74;24.73
75155;HTU21D;63735;44.730;37.818;2023-09-19T07:10:40;27.76;24.56
75155;HTU21D;63735;44.730;37.818;2023-09-19T07:13:07;27.75;24.61
75155;HTU21D;63735;44.730;37.818;2023-09-19T07:15:37;27.86;24.48
75155;HTU21D;63735;44.730;37.818;2023-09-19T07:18:13;27.83;24.50
75155;HTU21D;63735;44.730;37.818;2023-09-19T07:20:41;27.78;24.62
75155;HTU21D;63735;44.730;37.818;2023-09-19T07:23:21;27.83;24.53
75155;HTU21D;63735;44.730;37.818;2023-09-19T07:25:49;27.75;24.69
75155;HTU21D;63735;44.730;37.818;2023-09-19T07:28:15;27.89;24.66
75155;HTU21D;63735;44.730;37.818;2023-09-19T07:30:41;27.95;24.47
75155;HTU21D;63735;44.730;37.818;2023-09-19T07:33:08;27.96;24.34
75155;HTU21D;63735;44.730;37.818;2023-09-19T07:35:37;28.02;24.33
75155;HTU21D;63735;44.730;37.818;2023-09-19T07:38:06;28.08;24.37
75155;HTU21D;63735;44.730;37.818;2023-09-19T07:40:32;28.17;24.27
75155;HTU21D;63735;44.730;37.818;2023-09-19T07:42:58;28.26;24.11
75155;HTU21D;63735;44.730;37.818;2023-09-19T07:45:30;28.21;24.04
75155;HTU21D;63735;44.730;37.818;2023-09-19T07:47:58;28.11;24.27
75155;HTU21D;63735;44.730;37.818;2023-09-19T07:50:34;28.14;24.24
75155;HTU21D;63735;44.730;37.818;2023-09-19T07:53:03;28.17;24.11
75155;HTU21D;63735;44.730;37.818;2023-09-19T07:55:30;28.06;24.44
75155;HTU21D;63735;44.730;37.818;2023-09-19T07:57:56;28.19;24.56
75155;HTU21D;63735;44.730;37.818;2023-09-19T08:00:23;28.29;24.35
75155;HTU21D;63735;44.730;37.818;2023-09-19T08:02:49;28.28;24.46
75155;HTU21D;63735;44.730;37.818;2023-09-19T08:05:17;28.41;24.59
75155;HTU21D;63735;44.730;37.818;2023-09-19T08:07:45;28.49;24.47
75155;HTU21D;63735;44.730;37.818;2023-09-19T08:10:14;28.74;24.25
75155;HTU21D;63735;44.730;37.818;2023-09-19T08:12:45;28.84;23.93
75155;HTU21D;63735;44.730;37.818;2023-09-19T08:15:19;28.88;23.82
75155;HTU21D;63735;44.730;37.818;2023-09-19T08:17:48;28.87;23.61
75155;HTU21D;63735;44.730;37.818;2023-09-19T08:20:14;28.82;23.73
75155;HTU21D;63735;44.730;37.818;2023-09-19T08:22:47;28.88;23.63
75155;HTU21D;63735;44.730;37.818;2023-09-19T08:25:18;28.98;23.33
75155;HTU21D;63735;44.730;37.818;2023-09-19T08:27:44;29.06;23.40
75155;HTU21D;63735;44.730;37.818;2023-09-19T08:30:15;29.18;23.19
75155;HTU21D;63735;44.730;37.818;2023-09-19T08:32:41;29.20;23.03
75155;HTU21D;63735;44.730;37.818;2023-09-19T08:35:11;29.27;22.89
75155;HTU21D;63735;44.730;37.818;2023-09-19T08:37:37;29.38;22.72
75155;HTU21D;63735;44.730;37.818;2023-09-19T08:40:03;29.37;22.39
75155;HTU21D;63735;44.730;37.818;2023-09-19T08:42:32;29.31;22.56
75155;HTU21D;63735;44.730;37.818;2023-09-19T08:45:13;29.43;22.76
75155;HTU21D;63735;44.730;37.818;2023-09-19T08:47:46;29.78;22.31
75155;HTU21D;63735;44.730;37.818;2023-09-19T08:50:26;29.89;21.79
75155;HTU21D;63735;44.730;37.818;2023-09-19T08:52:55;29.90;22.03
75155;HTU21D;63735;44.730;37.818;2023-09-19T08:55:27;30.05;21.79
75155;HTU21D;63735;44.730;37.818;2023-09-19T08:58:14;30.16;21.18
75155;HTU21D;63735;44.730;37.818;2023-09-19T09:00:48;30.27;20.94
75155;HTU21D;63735;44.730;37.818;2023-09-19T09:03:16;30.31;20.76
75155;HTU21D;63735;44.730;37.818;2023-09-19T09:05:46;30.28;20.28
75155;HTU21D;63735;44.730;37.818;2023-09-19T09:08:13;30.17;20.28
75155;HTU21D;63735;44.730;37.818;2023-09-19T09:10:39;30.18;20.62
75155;HTU21D;63735;44.730;37.818;2023-09-19T09:13:06;30.33;20.66
75155;HTU21D;63735;44.730;37.818;2023-09-19T09:15:35;30.35;20.61
75155;HTU21D;63735;44.730;37.818;2023-09-19T09:18:02;30.47;20.73
75155;HTU21D;63735;44.730;37.818;2023-09-19T09:20:30;30.59;20.47
75155;HTU21D;63735;44.730;37.818;2023-09-19T09:22:57;30.46;20.76
75155;HTU21D;63735;44.730;37.818;2023-09-19T09:25:49;30.78;20.38
75155;HTU21D;63735;44.730;37.818;2023-09-19T09:28:21;30.91;20.33
75155;HTU21D;63735;44.730;37.818;2023-09-19T09:30:47;31.05;20.35
75155;HTU21D;63735;44.730;37.818;2023-09-19T09:33:14;31.23;20.22
75155;HTU21D;63735;44.730;37.818;2023-09-19T09:35:49;31.57;20.05
75155;HTU21D;63735;44.730;37.818;2023-09-19T09:38:19;31.79;19.60
75155;HTU21D;63735;44.730;37.818;2023-09-19T09:40:50;31.71;19.58
75155;HTU21D;63735;44.730;37.818;2023-09-19T09:43:32;31.64;19.54
75155;HTU21D;63735;44.730;37.818;2023-09-19T09:48:47;31.59;19.51
75155;HTU21D;63735;44.730;37.818;2023-09-19T09:51:33;31.45;19.41
75155;HTU21D;63735;44.730;37.818;2023-09-19T09:54:16;31.49;19.58
75155;HTU21D;63735;44.730;37.818;2023-09-19T09:56:59;31.65;19.25
75155;HTU21D;63735;44.730;37.818;2023-09-19T09:59:56;31.78;19.44
75155;HTU21D;63735;44.730;37.818;2023-09-19T10:02:42;32.13;19.12
75155;HTU21D;63735;44.730;37.818;2023-09-19T10:08:11;32.11;19.10
75155;HTU21D;63735;44.730;37.818;2023-09-19T10:10:40;32.40;19.05
75155;HTU21D;63735;44.730;37.818;2023-09-19T10:13:07;32.59;18.89
75155;HTU21D;63735;44.730;37.818;2023-09-19T10:15:38;32.76;18.61
75155;HTU21D;63735;44.730;37.818;2023-09-19T10:18:10;32.90;18.41
75155;HTU21D;63735;44.730;37.818;2023-09-19T10:20:37;32.83;18.02
75155;HTU21D;63735;44.730;37.818;2023-09-19T10:23:09;32.77;18.02
75155;HTU21D;63735;44.730;37.818;2023-09-19T10:25:37;32.69;18.16
75155;HTU21D;63735;44.730;37.818;2023-09-19T10:28:07;32.43;18.41
75155;HTU21D;63735;44.730;37.818;2023-09-19T10:30:47;32.48;18.72
75155;HTU21D;63735;44.730;37.818;2023-09-19T10:33:16;32.73;18.38
75155;HTU21D;63735;44.730;37.818;2023-09-19T10:35:46;32.62;18.62
75155;HTU21D;63735;44.730;37.818;2023-09-19T10:38:14;32.82;18.58
75155;HTU21D;63735;44.730;37.818;2023-09-19T10:40:40;32.94;18.11
75155;HTU21D;63735;44.730;37.818;2023-09-19T10:43:18;32.92;18.11
75155;HTU21D;63735;44.730;37.818;2023-09-19T10:45:45;33.16;17.93
75155;HTU21D;63735;44.730;37.818;2023-09-19T10:48:18;33.03;18.00
75155;HTU21D;63735;44.730;37.818;2023-09-19T10:51:33;32.77;18.30
75155;HTU21D;63735;44.730;37.818;2023-09-19T10:56:26;32.81;18.60
75155;HTU21D;63735;44.730;37.818;2023-09-19T10:59:11;32.93;18.64
75155;HTU21D;63735;44.730;37.818;2023-09-19T11:01:51;33.04;18.33
75155;HTU21D;63735;44.730;37.818;2023-09-19T11:04:36;33.11;18.44
75155;HTU21D;63735;44.730;37.818;2023-09-19T11:07:12;33.25;18.38
75155;HTU21D;63735;44.730;37.818;2023-09-19T11:14:52;33.58;18.12
75155;HTU21D;63735;44.730;37.818;2023-09-19T11:30:32;34.15;17.38
75155;HTU21D;63735;44.730;37.818;2023-09-19T11:49:29;34.95;16.54
75155;HTU21D;63735;44.730;37.818;2023-09-19T11:51:56;35.20;16.40
75155;HTU21D;63735;44.730;37.818;2023-09-19T11:54:23;35.26;16.19
75155;HTU21D;63735;44.730;37.818;2023-09-19T11:56:52;35.21;16.12
75155;HTU21D;63735;44.730;37.818;2023-09-19T11:59:21;35.01;16.06
75155;HTU21D;63735;44.730;37.818;2023-09-19T12:01:52;34.91;16.03
75155;HTU21D;63735;44.730;37.818;2023-09-19T12:04:37;34.75;16.36
75155;HTU21D;63735;44.730;37.818;2023-09-19T12:07:14;34.67;16.40
75155;HTU21D;63735;44.730;37.818;2023-09-19T12:09:50;34.73;16.32
75155;HTU21D;63735;44.730;37.818;2023-09-19T12:12:26;34.76;16.43
75155;HTU21D;63735;44.730;37.818;2023-09-19T12:14:58;35.09;16.21
75155;HTU21D;63735;44.730;37.818;2023-09-19T12:17:38;35.19;15.82
75155;HTU21D;63735;44.730;37.818;2023-09-19T12:20:07;35.19;15.87
75155;HTU21D;63735;44.730;37.818;2023-09-19T12:22:45;35.30;15.58
75155;HTU21D;63735;44.730;37.818;2023-09-19T12:25:14;35.63;15.30
75155;HTU21D;63735;44.730;37.818;2023-09-19T12:27:49;35.75;15.06
75155;HTU21D;63735;44.730;37.818;2023-09-19T12:30:19;35.88;14.93
75155;HTU21D;63735;44.730;37.818;2023-09-19T12:32:46;36.30;14.68
75155;HTU21D;63735;44.730;37.818;2023-09-19T12:35:32;36.72;14.27
75155;HTU21D;63735;44.730;37.818;2023-09-19T12:38:00;36.85;14.30
75155;HTU21D;63735;44.730;37.818;2023-09-19T12:40:26;36.95;13.91
75155;HTU21D;63735;44.730;37.818;2023-09-19T12:42:59;36.04;15.26
75155;HTU21D;63735;44.730;37.818;2023-09-19T12:45:26;35.13;17.32
75155;HTU21D;63735;44.730;37.818;2023-09-19T12:48:24;35.28;17.07
75155;HTU21D;63735;44.730;37.818;2023-09-19T12:51:07;35.92;16.05
75155;HTU21D;63735;44.730;37.818;2023-09-19T12:53:36;36.37;15.84
75155;HTU21D;63735;44.730;37.818;2023-09-19T12:56:11;35.74;17.07
75155;HTU21D;63735;44.730;37.818;2023-09-19T12:58:56;34.99;18.05
75155;HTU21D;63735;44.730;37.818;2023-09-19T13:01:25;35.03;17.56
75155;HTU21D;63735;44.730;37.818;2023-09-19T13:04:17;34.79;17.15
75155;HTU21D;63735;44.730;37.818;2023-09-19T13:06:47;34.50;17.25
75155;HTU21D;63735;44.730;37.818;2023-09-19T13:09:21;34.75;16.73
75155;HTU21D;63735;44.730;37.818;2023-09-19T13:11:48;34.73;16.35
75155;HTU21D;63735;44.730;37.818;2023-09-19T13:14:26;34.81;16.36
75155;HTU21D;63735;44.730;37.818;2023-09-19T13:17:03;34.29;17.37
75155;HTU21D;63735;44.730;37.818;2023-09-19T13:19:37;33.90;17.79
75155;HTU21D;63735;44.730;37.818;2023-09-19T13:22:03;34.31;17.33
75155;HTU21D;63735;44.730;37.818;2023-09-19T13:24:29;34.69;17.08
75155;HTU21D;63735;44.730;37.818;2023-09-19T13:26:56;34.91;16.79
75155;HTU21D;63735;44.730;37.818;2023-09-19T13:29:23;35.04;16.39
75155;HTU21D;63735;44.730;37.818;2023-09-19T13:31:50;34.55;16.55
75155;HTU21D;63735;44.730;37.818;2023-09-19T13:34:17;34.16;16.81
75155;HTU21D;63735;44.730;37.818;2023-09-19T13:36:44;34.15;16.90
75155;HTU21D;63735;44.730;37.818;2023-09-19T13:39:10;33.86;16.93
75155;HTU21D;63735;44.730;37.818;2023-09-19T13:41:38;33.57;17.29
75155;HTU21D;63735;44.730;37.818;2023-09-19T13:44:05;33.41;17.49
75155;HTU21D;63735;44.730;37.818;2023-09-19T13:46:31;33.33;17.87
75155;HTU21D;63735;44.730;37.818;2023-09-19T13:49:01;33.37;17.56
75155;HTU21D;63735;44.730;37.818;2023-09-19T13:51:32;33.32;17.28
75155;HTU21D;63735;44.730;37.818;2023-09-19T13:53:58;33.22;17.12
75155;HTU21D;63735;44.730;37.818;2023-09-19T13:56:25;33.04;17.09
75155;HTU21D;63735;44.730;37.818;2023-09-19T13:58:56;33.05;17.15
75155;HTU21D;63735;44.730;37.818;2023-09-19T14:01:22;32.78;17.18
75155;HTU21D;63735;44.730;37.818;2023-09-19T14:03:48;32.43;17.57
75155;HTU21D;63735;44.730;37.818;2023-09-19T14:06:17;32.31;17.66
75155;HTU21D;63735;44.730;37.818;2023-09-19T14:08:44;32.25;17.71
75155;HTU21D;63735;44.730;37.818;2023-09-19T14:11:13;31.92;17.86
75155;HTU21D;63735;44.730;37.818;2023-09-19T14:13:42;31.65;18.26
75155;HTU21D;63735;44.730;37.818;2023-09-19T14:16:17;31.53;18.31
75155;HTU21D;63735;44.730;37.818;2023-09-19T14:18:45;31.34;18.44
75155;HTU21D;63735;44.730;37.818;2023-09-19T14:21:12;31.01;18.80
75155;HTU21D;63735;44.730;37.818;2023-09-19T14:23:38;30.95;18.89
75155;HTU21D;63735;44.730;37.818;2023-09-19T14:26:05;30.99;18.87
75155;HTU21D;63735;44.730;37.818;2023-09-19T14:28:31;30.79;18.85
75155;HTU21D;63735;44.730;37.818;2023-09-19T14:31:09;30.10;19.11
75155;HTU21D;63735;44.730;37.818;2023-09-19T14:33:36;29.61;19.53
75155;HTU21D;63735;44.730;37.818;2023-09-19T14:36:07;29.32;19.83
75155;HTU21D;63735;44.730;37.818;2023-09-19T14:38:35;29.11;20.10
75155;HTU21D;63735;44.730;37.818;2023-09-19T14:41:06;28.79;20.53
75155;HTU21D;63735;44.730;37.818;2023-09-19T14:43:32;28.52;20.79
75155;HTU21D;63735;44.730;37.818;2023-09-19T14:46:08;28.25;21.18
75155;HTU21D;63735;44.730;37.818;2023-09-19T14:48:35;28.00;21.48
75155;HTU21D;63735;44.730;37.818;2023-09-19T14:51:06;27.69;21.96
75155;HTU21D;63735;44.730;37.818;2023-09-19T14:53:32;27.50;22.27
75155;HTU21D;63735;44.730;37.818;2023-09-19T14:56:02;27.35;22.53
75155;HTU21D;63735;44.730;37.818;2023-09-19T14:58:31;27.24;22.85
75155;HTU21D;63735;44.730;37.818;2023-09-19T15:01:04;27.08;23.05
75155;HTU21D;63735;44.730;37.818;2023-09-19T15:03:32;26.97;23.31
75155;HTU21D;63735;44.730;37.818;2023-09-19T15:06:06;26.84;23.50
75155;HTU21D;63735;44.730;37.818;2023-09-19T15:08:34;26.72;23.71
75155;HTU21D;63735;44.730;37.818;2023-09-19T15:11:07;26.62;23.91
75155;HTU21D;63735;44.730;37.818;2023-09-19T15:13:34;26.49;24.16
75155;HTU21D;63735;44.730;37.818;2023-09-19T15:16:07;26.36;24.35
75155;HTU21D;63735;44.730;37.818;2023-09-19T15:18:41;26.27;24.55
75155;HTU21D;63735;44.730;37.818;2023-09-19T15:21:08;26.16;24.78
75155;HTU21D;63735;44.730;37.818;2023-09-19T15:23:36;26.04;25.01
75155;HTU21D;63735;44.730;37.818;2023-09-19T15:26:03;25.93;25.13
75155;HTU21D;63735;44.730;37.818;2023-09-19T15:28:30;25.84;25.30
75155;HTU21D;63735;44.730;37.818;2023-09-19T15:33:26;25.63;25.73
75155;HTU21D;63735;44.730;37.818;2023-09-19T15:38:30;25.48;26.06
75155;HTU21D;63735;44.730;37.818;2023-09-19T15:40:58;25.39;26.20
75155;HTU21D;63735;44.730;37.818;2023-09-19T15:43:24;25.32;26.35
75155;HTU21D;63735;44.730;37.818;2023-09-19T15:45:50;25.23;26.51
75155;HTU21D;63735;44.730;37.818;2023-09-19T15:48:17;25.12;26.68
75155;HTU21D;63735;44.730;37.818;2023-09-19T15:50:44;25.07;26.51
75155;HTU21D;63735;44.730;37.818;2023-09-19T15:53:10;24.95;26.79
75155;HTU21D;63735;44.730;37.818;2023-09-19T15:55:41;24.86;27.03
75155;HTU21D;63735;44.730;37.818;2023-09-19T15:58:07;24.78;27.20
75155;HTU21D;63735;44.730;37.818;2023-09-19T16:00:33;24.70;27.35
75155;HTU21D;63735;44.730;37.818;2023-09-19T16:03:00;24.62;27.55
75155;HTU21D;63735;44.730;37.818;2023-09-19T16:05:27;24.56;27.77
75155;HTU21D;63735;44.730;37.818;2023-09-19T16:07:53;24.49;27.89
75155;HTU21D;63735;44.730;37.818;2023-09-19T16:10:19;24.41;28.00
75155;HTU21D;63735;44.730;37.818;2023-09-19T16:12:47;24.32;28.29
75155;HTU21D;63735;44.730;37.818;2023-09-19T16:15:13;24.20;28.53
75155;HTU21D;63735;44.730;37.818;2023-09-19T16:17:41;24.09;28.72
75155;HTU21D;63735;44.730;37.818;2023-09-19T16:20:07;24.09;28.74
75155;HTU21D;63735;44.730;37.818;2023-09-19T16:22:38;24.14;28.61
75155;HTU21D;63735;44.730;37.818;2023-09-19T16:25:06;24.15;28.71
75155;HTU21D;63735;44.730;37.818;2023-09-19T16:27:32;24.13;28.71